Wildwood Landing, Indiana
Current Conditions -  °F | °C
As of 3:55 PM on Thursday 20 Nov 2014 (Local Time) from KANQ Reporting Station
Broken Clouds Broken Clouds  
Wind Chill: 12°   Ceiling: 5000
Heat Index: 25°   Visibility: 10mi
Dew Point: 10°   Wind: 15mph
Humidity: 54%   Direction: 280°W
Pressure: 30"   Gusts: NA
Location:  41.5814°N, 85.1996°W
Report Text: KANQ 202055Z AUTO 28013KT 220V300 10SM FEW044 BKN050 M04/M12 A3000 RMK
Loading
Personal Weather Stations






























Interactive Weather Map New forecast layout! Learn more

10-Day Weather Forecast

Advertisements
Track Severe Weather on mobile